KJHW

Chautauqua County / Jamestown Airport

Jamestown, New York, USA
METAR KJHW 221356Z AUTO 20006KT 10SM OVC075 03/M01 A3011 RMK AO2 SLP216 T00281011
Observed Flight Rules
Oct-22 @ 13:56 UTC (25 minutes ago) Visual Flight Rules
Wind Visibility Clouds
200° at 6 knots 10 miles
  • Overcast at 7,500' AGL
Temperatures Readings
Current 3°C / 37°F
Dewpoint -1°C / 30°F
Humidity 75%
Altimeter 30.11" Hg
Pressure 1021.6 hPa
Elevation 525
METAR KJHW 221356Z AUTO 20006KT 10SM OVC075 03/M01 A3011 RMK AO2 SLP216 T00281011
Observed Flight Rules
Oct-22 @ 13:56 UTC
(25 minutes ago)
VFR
Wind Visibility
200° at 6 knots 10 miles
Clouds
  • Overcast at 7,500' AGL
Temperature Dewpoint
3°C / 37°F -1°C / 30°F
Humidity Altimeter Pressure
75% 30.11" Hg 1021.6 hPa